createdAt,value
2018-06-29T00:00:36.803Z,56.30
2018-06-29T00:03:05.576Z,56.20
2018-06-29T00:05:34.299Z,56.30
2018-06-29T00:08:02.971Z,56.40
2018-06-29T00:10:31.850Z,56.50
2018-06-29T00:13:00.519Z,56.40
2018-06-29T00:15:29.197Z,56.60
2018-06-29T00:17:57.878Z,56.50
2018-06-29T00:20:26.554Z,56.20
2018-06-29T00:22:55.245Z,56.20
2018-06-29T00:25:23.901Z,56.40
2018-06-29T00:27:52.776Z,56.40
2018-06-29T00:30:21.474Z,56.50
2018-06-29T00:32:50.159Z,56.30
2018-06-29T00:35:18.870Z,56.30
2018-06-29T00:37:47.539Z,56.40
2018-06-29T00:40:16.300Z,56.30
2018-06-29T00:42:44.954Z,56.40
2018-06-29T00:45:13.775Z,56.50
2018-06-29T00:47:42.489Z,56.70
2018-06-29T00:50:11.193Z,56.70
2018-06-29T00:52:39.900Z,56.60
2018-06-29T00:55:08.571Z,56.70
2018-06-29T00:57:37.341Z,56.90
2018-06-29T01:00:07.539Z,56.90
2018-06-29T01:02:37.320Z,56.80
2018-06-29T01:05:06.612Z,56.80
2018-06-29T01:07:35.613Z,56.80
2018-06-29T01:10:04.626Z,56.90
2018-06-29T01:12:33.543Z,56.90
2018-06-29T01:15:02.710Z,57.00
2018-06-29T01:17:31.688Z,57.00
2018-06-29T01:20:00.940Z,57.00
2018-06-29T01:22:29.915Z,57.10
2018-06-29T01:24:58.790Z,56.90
2018-06-29T01:27:27.594Z,57.10
2018-06-29T01:29:56.268Z,57.20
2018-06-29T01:32:24.960Z,57.10
2018-06-29T01:34:53.672Z,57.00
2018-06-29T01:37:22.485Z,57.00
2018-06-29T01:39:51.289Z,57.20
2018-06-29T01:42:19.988Z,57.20
2018-06-29T01:44:48.693Z,57.30
2018-06-29T01:47:17.347Z,57.40
2018-06-29T01:49:46.539Z,57.60
2018-06-29T01:52:15.211Z,57.60
2018-06-29T01:54:44.050Z,57.80
2018-06-29T01:57:12.912Z,57.60
2018-06-29T01:59:42.363Z,57.80
2018-06-29T02:02:11.081Z,57.80
2018-06-29T02:04:39.727Z,57.70
2018-06-29T02:07:08.603Z,57.80
2018-06-29T02:09:37.277Z,57.80
2018-06-29T02:12:06.080Z,57.80
2018-06-29T02:14:34.937Z,57.80
2018-06-29T02:17:03.644Z,57.90
2018-06-29T02:19:32.365Z,58.00
2018-06-29T02:22:01.032Z,58.10
2018-06-29T02:24:29.728Z,58.10
2018-06-29T02:26:58.482Z,58.80
2018-06-29T02:29:27.198Z,58.20
2018-06-29T02:31:55.989Z,58.20
2018-06-29T02:34:24.788Z,58.40
2018-06-29T02:36:53.535Z,58.50
2018-06-29T02:39:22.260Z,58.60
2018-06-29T02:41:50.993Z,58.70
2018-06-29T02:44:19.720Z,58.60
2018-06-29T02:46:48.406Z,58.70
2018-06-29T02:49:17.396Z,58.80
2018-06-29T02:51:46.065Z,58.80
2018-06-29T02:54:14.757Z,58.80
2018-06-29T02:56:43.999Z,58.90
2018-06-29T02:59:12.889Z,58.80
2018-06-29T03:01:41.593Z,59.00
2018-06-29T03:04:10.289Z,58.90
2018-06-29T03:06:39.020Z,59.00
2018-06-29T03:09:08.934Z,59.10
2018-06-29T03:11:37.860Z,59.20
2018-06-29T03:14:06.717Z,59.20
2018-06-29T03:16:35.484Z,59.20
2018-06-29T03:19:04.149Z,59.20
2018-06-29T03:21:32.861Z,59.30
2018-06-29T03:24:01.572Z,59.30
2018-06-29T03:26:30.386Z,59.40
2018-06-29T03:28:59.314Z,59.40
2018-06-29T03:31:28.204Z,59.50
2018-06-29T03:33:57.099Z,59.60
2018-06-29T03:36:25.754Z,59.70
2018-06-29T03:38:55.346Z,59.70
2018-06-29T03:41:24.034Z,59.80
2018-06-29T03:43:52.726Z,59.90
2018-06-29T03:46:21.467Z,60.10
2018-06-29T03:48:50.182Z,60.20
2018-06-29T03:51:19.287Z,60.30
2018-06-29T03:53:47.965Z,60.30
2018-06-29T03:56:16.807Z,60.20
2018-06-29T03:58:45.539Z,60.40
2018-06-29T04:01:15.209Z,60.50
2018-06-29T04:03:44.092Z,60.40
2018-06-29T04:06:17.682Z,60.50
2018-06-29T04:08:46.635Z,60.50
2018-06-29T04:11:15.412Z,60.70
2018-06-29T04:13:44.302Z,60.80
2018-06-29T04:16:13.544Z,61.00
2018-06-29T04:18:49.308Z,61.10
2018-06-29T04:21:28.526Z,61.10
2018-06-29T04:24:06.235Z,61.20
2018-06-29T04:26:35.281Z,61.20
2018-06-29T04:29:03.933Z,61.70
2018-06-29T04:31:32.682Z,61.70
2018-06-29T04:34:01.641Z,61.90
2018-06-29T04:36:30.781Z,62.00
2018-06-29T04:38:59.681Z,61.70
2018-06-29T04:41:28.524Z,61.70
2018-06-29T04:43:57.365Z,61.80
2018-06-29T04:46:26.022Z,61.90
2018-06-29T04:48:54.701Z,61.90
2018-06-29T04:51:23.686Z,62.00
2018-06-29T04:53:52.400Z,62.20
2018-06-29T04:56:21.069Z,62.20
2018-06-29T04:58:49.745Z,62.10
2018-06-29T05:01:19.593Z,62.10
2018-06-29T05:03:48.262Z,62.00
2018-06-29T05:06:16.930Z,62.00
2018-06-29T05:08:45.716Z,62.00
2018-06-29T05:11:14.492Z,62.10
2018-06-29T05:13:43.516Z,62.20
2018-06-29T05:16:12.194Z,62.30
2018-06-29T05:18:41.070Z,62.40
2018-06-29T05:21:12.505Z,62.50
2018-06-29T05:23:41.575Z,62.40
2018-06-29T05:26:11.123Z,62.60
2018-06-29T05:28:40.097Z,62.80
2018-06-29T05:31:09.069Z,62.60
2018-06-29T05:38:39.798Z,63.00
2018-06-29T05:41:10.124Z,63.00
2018-06-29T05:43:40.162Z,63.80
2018-06-29T05:51:55.754Z,63.00
2018-06-29T05:54:47.346Z,62.90
2018-06-29T05:57:37.475Z,62.80
2018-06-29T06:00:27.576Z,62.80
2018-06-29T06:06:35.114Z,62.40
2018-06-29T06:09:14.329Z,62.20
2018-06-29T06:12:35.257Z,62.30
2018-06-29T06:15:05.240Z,62.40
2018-06-29T06:20:28.130Z,61.90
2018-06-29T06:23:21.502Z,61.80
2018-06-29T06:35:54.036Z,60.80
2018-06-29T06:44:21.758Z,57.40
2018-06-29T06:47:07.090Z,51.30
2018-06-29T06:49:40.030Z,53.50
2018-06-29T06:55:01.501Z,54.80
2018-06-29T06:57:31.774Z,54.80
2018-06-29T07:00:04.531Z,56.10
2018-06-29T07:15:59.146Z,56.70
2018-06-29T07:21:55.438Z,56.70
2018-06-29T07:24:29.752Z,55.30
2018-06-29T07:27:11.806Z,54.40
2018-06-29T07:29:46.158Z,53.50
2018-06-29T07:32:22.062Z,53.30
2018-06-29T07:35:09.331Z,53.90
2018-06-29T07:37:58.923Z,54.50
2018-06-29T07:43:35.733Z,54.90
2018-06-29T07:46:25.155Z,55.10
2018-06-29T07:48:54.457Z,54.90
2018-06-29T07:51:28.114Z,55.00
2018-06-29T07:56:42.020Z,55.20
2018-06-29T07:59:33.224Z,55.40
2018-06-29T08:50:55.541Z,52.80
2018-06-29T08:58:23.366Z,53.00
2018-06-29T09:06:28.083Z,52.00
2018-06-29T09:12:09.327Z,50.60
2018-06-29T09:17:43.486Z,49.80
2018-06-29T09:23:06.157Z,49.30
2018-06-29T09:28:45.344Z,49.10
2018-06-29T09:31:46.532Z,48.80
2018-06-29T09:34:20.749Z,49.20
2018-06-29T09:36:49.485Z,48.80
2018-06-29T09:39:19.162Z,48.20
2018-06-29T09:42:06.192Z,47.60
2018-06-29T10:17:18.194Z,47.70
2018-06-29T10:28:23.177Z,46.10
2018-06-29T10:48:29.594Z,44.80
2018-06-29T10:54:56.279Z,44.00
2018-06-29T10:58:22.484Z,43.90
2018-06-29T11:00:57.847Z,43.90
2018-06-29T11:03:36.096Z,43.70
2018-06-29T11:06:30.017Z,43.10
2018-06-29T11:24:04.343Z,41.80
2018-06-29T11:26:42.742Z,41.80
2018-06-29T11:29:14.122Z,41.80
2018-06-29T11:36:02.402Z,40.90
2018-06-29T11:47:36.970Z,39.40
2018-06-29T12:03:53.798Z,40.40
2018-06-29T12:37:50.397Z,40.60
2018-06-29T12:40:24.303Z,39.60
2018-06-29T12:43:27.274Z,39.10
2018-06-29T12:48:52.666Z,38.20
2018-06-29T13:17:04.403Z,35.80
2018-06-29T13:19:35.661Z,38.20
2018-06-29T13:22:09.656Z,38.90
2018-06-29T13:24:38.530Z,39.10
2018-06-29T13:27:15.118Z,38.90
2018-06-29T13:32:41.959Z,39.00
2018-06-29T13:35:10.807Z,39.00
2018-06-29T13:37:40.023Z,38.70
2018-06-29T13:40:08.757Z,37.40
2018-06-29T13:42:37.808Z,37.60
2018-06-29T13:45:06.774Z,36.80
2018-06-29T13:47:38.436Z,36.90
2018-06-29T13:50:10.986Z,36.80
2018-06-29T13:55:35.714Z,36.30
2018-06-29T13:58:05.778Z,36.60
2018-06-29T14:00:35.376Z,36.80
2018-06-29T14:03:04.859Z,36.40
2018-06-29T14:05:34.673Z,36.90
2018-06-29T14:08:04.237Z,36.90
2018-06-29T14:10:33.501Z,37.10
2018-06-29T14:13:02.381Z,37.50
2018-06-29T14:15:31.882Z,37.30
2018-06-29T14:18:06.974Z,36.80
2018-06-29T14:20:36.286Z,37.10
2018-06-29T14:23:05.564Z,37.00
2018-06-29T14:25:34.395Z,37.10
2018-06-29T14:28:03.455Z,36.50
2018-06-29T14:30:32.763Z,36.00
2018-06-29T14:33:02.355Z,36.20
2018-06-29T14:35:31.143Z,36.30
2018-06-29T14:38:04.915Z,36.40
2018-06-29T14:40:36.066Z,36.30
2018-06-29T14:43:05.620Z,37.00
2018-06-29T14:48:27.934Z,36.90
2018-06-29T14:51:00.067Z,37.60
2018-06-29T14:53:31.563Z,37.20
2018-06-29T14:56:00.371Z,36.60
2018-06-29T14:58:33.784Z,36.30
2018-06-29T15:01:08.704Z,36.70
2018-06-29T15:03:46.265Z,37.10
2018-06-29T15:06:17.908Z,37.10
2018-06-29T15:11:50.469Z,37.30
2018-06-29T15:14:23.040Z,37.10
2018-06-29T15:16:54.645Z,36.90
2018-06-29T15:19:35.461Z,36.80
2018-06-29T15:22:04.693Z,37.20
2018-06-29T15:27:59.441Z,37.30
2018-06-29T15:33:09.576Z,38.20
2018-06-29T15:44:19.336Z,39.50
2018-06-29T15:47:40.028Z,40.10
2018-06-29T15:50:09.478Z,40.80
2018-06-29T15:52:38.799Z,40.60
2018-06-29T15:55:07.952Z,41.00
2018-06-29T15:57:36.932Z,41.60
2018-06-29T16:00:08.211Z,42.20
2018-06-29T16:02:38.125Z,42.80
2018-06-29T16:05:09.271Z,43.40
2018-06-29T16:07:38.366Z,43.20
2018-06-29T16:10:08.624Z,43.20
2018-06-29T16:13:22.834Z,43.30
2018-06-29T16:24:33.502Z,43.80
2018-06-29T16:27:02.809Z,43.80
2018-06-29T16:35:37.287Z,44.60
2018-06-29T16:38:06.315Z,44.70
2018-06-29T16:43:28.834Z,45.30
2018-06-29T16:45:58.834Z,45.70
2018-06-29T16:48:30.934Z,45.90
2018-06-29T16:54:02.916Z,47.30
2018-06-29T17:05:19.069Z,49.10
2018-06-29T17:10:45.598Z,49.50
2018-06-29T17:13:20.753Z,49.80
2018-06-29T17:15:52.095Z,50.00
2018-06-29T17:21:14.169Z,50.10
2018-06-29T17:23:46.236Z,50.40
2018-06-29T17:26:15.585Z,50.50
2018-06-29T17:28:44.348Z,51.00
2018-06-29T17:31:13.387Z,51.20
2018-06-29T17:33:48.871Z,51.30
2018-06-29T17:36:17.889Z,51.50
2018-06-29T17:38:46.690Z,51.80
2018-06-29T17:41:21.747Z,51.80
2018-06-29T17:43:50.907Z,52.10
2018-06-29T17:46:20.466Z,52.00
2018-06-29T17:48:49.405Z,52.10
2018-06-29T17:51:18.629Z,52.10
2018-06-29T17:53:47.343Z,52.20
2018-06-29T17:56:16.339Z,52.20
2018-06-29T17:58:45.283Z,52.40
2018-06-29T18:01:13.952Z,52.50
2018-06-29T18:03:42.699Z,52.50
2018-06-29T18:06:12.669Z,52.70
2018-06-29T18:08:41.670Z,52.90
2018-06-29T18:11:10.470Z,52.80
2018-06-29T18:13:45.105Z,52.70
2018-06-29T18:16:17.298Z,52.70
2018-06-29T18:18:52.717Z,52.60
2018-06-29T18:21:27.822Z,52.60
2018-06-29T18:27:04.338Z,52.80
2018-06-29T18:36:16.908Z,52.90
2018-06-29T18:45:50.772Z,53.10
2018-06-29T19:08:55.297Z,54.00
2018-06-29T19:11:46.508Z,54.20
2018-06-29T19:15:13.818Z,54.30
2018-06-29T19:17:52.981Z,54.40
2018-06-29T19:21:05.529Z,54.30
2018-06-29T19:23:57.518Z,54.50
2018-06-29T19:26:48.737Z,54.40
2018-06-29T19:29:33.041Z,54.40
2018-06-29T19:37:35.556Z,54.40
2018-06-29T19:40:11.693Z,54.40
2018-06-29T19:42:41.337Z,54.10
2018-06-29T19:45:10.576Z,54.40
2018-06-29T19:47:41.062Z,54.50
2018-06-29T19:50:10.939Z,54.60
2018-06-29T19:52:40.095Z,54.80
2018-06-29T19:55:09.421Z,54.70
2018-06-29T19:57:40.903Z,54.50
2018-06-29T20:00:10.183Z,54.80
2018-06-29T20:02:41.711Z,54.40
2018-06-29T20:08:15.036Z,54.00
2018-06-29T20:11:11.320Z,53.90
2018-06-29T20:13:57.494Z,53.30
2018-06-29T20:16:37.088Z,53.20
2018-06-29T20:19:06.437Z,52.80
2018-06-29T20:21:55.040Z,52.70
2018-06-29T21:46:11.032Z,52.60
2018-06-29T21:48:46.431Z,56.50
2018-06-29T21:51:36.131Z,57.30
2018-06-29T21:54:37.333Z,57.60
2018-06-29T21:57:29.511Z,57.90
2018-06-29T22:00:01.905Z,58.20
2018-06-29T22:02:47.467Z,58.30
2018-06-29T22:05:19.887Z,59.00
2018-06-29T22:07:49.208Z,58.60
2018-06-29T22:10:18.101Z,58.90
2018-06-29T22:12:46.771Z,59.20
2018-06-29T22:15:23.077Z,59.30
2018-06-29T22:17:56.320Z,59.50
2018-06-29T22:20:25.562Z,59.70
2018-06-29T22:22:56.927Z,59.90
2018-06-29T22:25:27.067Z,60.10
2018-06-29T22:27:55.940Z,60.30
2018-06-29T22:30:25.084Z,60.50
2018-06-29T22:32:55.173Z,60.70
2018-06-29T22:35:24.094Z,60.90
2018-06-29T22:37:52.964Z,61.00
2018-06-29T22:40:21.766Z,61.30
2018-06-29T22:42:50.438Z,61.60
2018-06-29T22:45:19.268Z,61.80
2018-06-29T22:47:48.178Z,61.90
2018-06-29T22:50:16.921Z,62.00
2018-06-29T22:52:45.694Z,62.20
2018-06-29T22:55:14.566Z,62.30
2018-06-29T22:57:43.189Z,62.40
2018-06-29T23:00:12.037Z,62.60
2018-06-29T23:15:43.317Z,63.00
2018-06-29T23:18:12.206Z,63.20
2018-06-29T23:20:49.558Z,63.90
2018-06-29T23:23:19.342Z,64.20
2018-06-29T23:25:48.568Z,64.50
2018-06-29T23:31:47.880Z,64.70
2018-06-29T23:34:56.250Z,64.80
2018-06-29T23:40:00.623Z,65.10
2018-06-29T23:42:29.750Z,65.30
2018-06-29T23:45:18.386Z,65.40
2018-06-29T23:47:49.099Z,65.60
2018-06-29T23:50:18.233Z,65.70
2018-06-29T23:52:53.889Z,65.90
2018-06-29T23:55:23.757Z,65.80
2018-06-29T23:57:54.919Z,66.00
